»·PEaware :: N739DX KWHP-KSBD

N739DX :: KWHP-KSBD

FLIGHT INFORMATION

Flight Status: Arrived
Operator: Privately registered:
United States
More flights under this callsign
Pilot: Victor R. (33153)
Aircraft: CESSNA 172 SKYHAWK
(C172)
More flights by this aircraft type
Origin: KWHP Whiteman
United States
Destination: KSBD San Bernardino Intl
United States
More flights between these airports :: More routes between these airports
Route:
File this flight plan on PilotEdge
Remarks:
Altitude:
(Current/Filed)
4,500ft
Speed:
(Current/Filed)
105kts
Departed: 12-Jan-21 01:19 PM
Arrived: 12-Jan-21 01:57 PM
Distance/Time
Traveled:
59nm/0:38
Distance/Time
To Go:
Arrived

Flight Plot

Page will automatically refresh every two minutes.

Flight plan parsing failed; only flown route is shown


Map Options




Map Legend


Flown Route
Filed Route
Departure Airport
Arrival Airport
Navaid (VOR, NDB)
Fix

Horizontal Profiles

Position Reports

Time Latitude Longitude Heading Altitude Ground
Speed
12-Jan-21 12:59 34.265166 -118.413314 138 1021ft 0kts
12-Jan-21 13:00 34.265166 -118.413314 138 1021ft 0kts
12-Jan-21 13:01 34.265166 -118.413314 138 1021ft 0kts
12-Jan-21 13:02 34.265166 -118.413314 138 1021ft 0kts
12-Jan-21 13:03 34.265166 -118.413314 138 1021ft 0kts
12-Jan-21 13:04 34.265166 -118.413314 137 1021ft 0kts
12-Jan-21 13:05 34.265166 -118.413314 137 1021ft 0kts
12-Jan-21 13:06 34.265166 -118.413314 137 1021ft 0kts
12-Jan-21 13:07 34.265166 -118.413314 137 1021ft 0kts
12-Jan-21 13:08 34.263612 -118.415151 228 1008ft 27kts
12-Jan-21 13:09 34.262908 -118.416621 317 1003ft 6kts
12-Jan-21 13:10 34.263605 -118.417366 313 1006ft 0kts
12-Jan-21 13:11 34.263605 -118.417366 313 1006ft 0kts
12-Jan-21 13:12 34.263605 -118.417366 313 1006ft 0kts
12-Jan-21 13:13 34.263605 -118.417366 313 1006ft 0kts
12-Jan-21 13:14 34.263605 -118.417366 313 1006ft 0kts
12-Jan-21 13:15 34.263669 -118.417446 310 1006ft 0kts
12-Jan-21 13:16 34.263669 -118.417446 310 1006ft 0kts
12-Jan-21 13:17 34.263037 -118.417305 125 1004ft 0kts
12-Jan-21 13:18 34.251820 -118.405769 136 1079ft 92kts
12-Jan-21 13:19 34.234645 -118.382628 128 1556ft 93kts
12-Jan-21 13:20 34.218216 -118.358413 130 2010ft 93kts
12-Jan-21 13:21 34.200842 -118.332972 124 2202ft 107kts
12-Jan-21 13:22 34.183136 -118.305878 130 2327ft 105kts
12-Jan-21 13:23 34.161859 -118.282712 143 2446ft 105kts
12-Jan-21 13:24 34.146748 -118.255756 92 2543ft 100kts
12-Jan-21 13:25 34.144803 -118.220175 88 2491ft 105kts
12-Jan-21 13:26 34.144144 -118.184544 93 2454ft 106kts
12-Jan-21 13:27 34.143200 -118.148881 81 2460ft 104kts
12-Jan-21 13:28 34.150364 -118.114258 72 2439ft 106kts
12-Jan-21 13:29 34.158209 -118.079877 86 2386ft 109kts
12-Jan-21 13:30 34.160965 -118.044455 78 2374ft 109kts
12-Jan-21 13:31 34.161362 -118.008314 93 2364ft 108kts
12-Jan-21 13:32 34.157087 -117.972579 105 2361ft 108kts
12-Jan-21 13:33 34.145860 -117.939106 115 2368ft 107kts
12-Jan-21 13:34 34.140365 -117.903610 99 2386ft 104kts
12-Jan-21 13:35 34.145770 -117.869752 87 2411ft 105kts
12-Jan-21 13:36 34.146575 -117.834874 89 2445ft 105kts
12-Jan-21 13:37 34.147196 -117.800248 84 2751ft 105kts
12-Jan-21 13:38 34.145428 -117.765947 90 3346ft 105kts
12-Jan-21 13:39 34.147738 -117.731485 80 3502ft 104kts
12-Jan-21 13:40 34.150594 -117.698213 89 3615ft 104kts
12-Jan-21 13:41 34.150240 -117.663049 87 3719ft 105kts
12-Jan-21 13:43 34.150340 -117.629342 87 3926ft 101kts
12-Jan-21 13:44 34.151750 -117.594102 89 3895ft 105kts
12-Jan-21 13:45 34.148805 -117.558838 94 3854ft 106kts
12-Jan-21 13:46 34.146147 -117.523453 94 3823ft 106kts
12-Jan-21 13:47 34.144231 -117.488151 86 3805ft 105kts
12-Jan-21 13:48 34.142082 -117.453133 93 3531ft 106kts
12-Jan-21 13:49 34.140790 -117.416519 97 3066ft 104kts
12-Jan-21 13:50 34.134315 -117.382157 108 3095ft 105kts
12-Jan-21 13:51 34.126432 -117.348210 105 3298ft 105kts
12-Jan-21 13:52 34.117306 -117.310126 108 2917ft 122kts
12-Jan-21 13:53 34.107140 -117.272075 104 2676ft 120kts
12-Jan-21 13:54 34.093679 -117.238635 116 1860ft 104kts
12-Jan-21 13:55 34.079459 -117.255861 236 1658ft 86kts
12-Jan-21 13:56 34.088539 -117.256030 56 1213ft 59kts
12-Jan-21 13:57 34.092891 -117.243218 66 1103ft 32kts
12-Jan-21 13:57 34.094322 -117.242137 358 1105ft 0kts
12-Jan-21 13:59 34.094322 -117.242137 358 1105ft 0kts
12-Jan-21 14:00 34.094322 -117.242137 358 1105ft 0kts

Navigation Log

Ident Type
Flight plan parsing failed, navigation log unavailable